Time;durP1;ratioP1;P1;durP2;ratioP2;P2;SDS_P1;SDS_P2;PMS_P1;PMS_P2;Temp;Humidity;BMP_temperature;BMP_pressure;BME280_temperature;BME280_humidity;BME280_pressure;Samples;Min_cycle;Max_cycle;Signal;HPM_P1;HPM_P2
2023/02/05 00:00:17;;;;;;;11.80;8.20;;;25.60;2201.60;;;;;;5048405;28;20112;-60
2023/02/05 00:02:43;;;;;;;17.00;8.50;;;25.60;2201.60;;;;;;5047599;28;20048;-60
2023/02/05 00:05:09;;;;;;;11.65;6.05;;;25.70;2201.60;;;;;;5047807;28;20554;-63
2023/02/05 00:07:34;;;;;;;12.43;7.28;;;25.60;2201.60;;;;;;5048156;28;20040;-61
2023/02/05 00:10:00;;;;;;;14.60;7.38;;;25.70;2201.60;;;;;;5050782;28;20037;-61
2023/02/05 00:12:26;;;;;;;13.77;6.97;;;25.70;2201.60;;;;;;5052102;28;20037;-59
2023/02/05 00:14:52;;;;;;;8.57;5.00;;;25.60;2201.60;;;;;;5051822;28;20499;-64
2023/02/05 00:17:18;;;;;;;9.48;4.60;;;0.90;2201.60;;;;;;5051555;28;20040;-60
2023/02/05 00:19:43;;;;;;;6.20;4.22;;;0.90;2201.60;;;;;;5052042;28;20108;-60
2023/02/05 00:22:09;;;;;;;53.60;29.08;;;0.80;2201.60;;;;;;5051338;28;20183;-60
2023/02/05 00:24:35;;;;;;;10.07;6.00;;;0.80;2201.60;;;;;;5051695;28;20040;-60
2023/02/05 00:27:01;;;;;;;8.68;4.95;;;0.70;2201.60;;;;;;5051696;28;20032;-61
2023/02/05 00:29:26;;;;;;;11.93;5.28;;;0.80;2201.60;;;;;;5051474;28;20475;-59
2023/02/05 00:31:52;;;;;;;13.63;5.82;;;0.70;2201.60;;;;;;5051519;28;20029;-60
2023/02/05 00:34:18;;;;;;;18.45;8.40;;;0.70;2201.60;;;;;;5051317;28;20059;-61
2023/02/05 00:36:44;;;;;;;11.10;6.40;;;0.70;2201.60;;;;;;5051618;28;20025;-61
2023/02/05 00:39:11;;;;;;;14.15;8.18;;;0.80;2201.60;;;;;;5051431;28;20087;-60
2023/02/05 00:41:37;;;;;;;13.48;7.05;;;0.90;2201.60;;;;;;5051672;28;20033;-61
2023/02/05 00:44:03;;;;;;;13.32;5.90;;;25.60;2201.60;;;;;;5050985;28;20041;-60
2023/02/05 00:46:29;;;;;;;8.70;4.63;;;25.70;2201.60;;;;;;5051219;28;20056;-60
2023/02/05 00:48:55;;;;;;;10.63;5.47;;;25.70;2201.60;;;;;;5051593;28;20033;-60
2023/02/05 00:51:21;;;;;;;24.80;11.02;;;25.70;2201.60;;;;;;5050930;28;20055;-61
2023/02/05 00:53:46;;;;;;;14.70;7.78;;;25.60;2201.60;;;;;;5051250;28;20036;-61
2023/02/05 00:56:12;;;;;;;9.98;5.53;;;25.60;2201.60;;;;;;5031923;28;20076;-62
2023/02/05 00:58:38;;;;;;;18.20;9.23;;;25.70;2201.60;;;;;;5051070;28;20025;-61
2023/02/05 01:01:04;;;;;;;13.10;7.25;;;25.60;2201.60;;;;;;5051436;28;20108;-60
2023/02/05 01:03:30;;;;;;;14.85;6.40;;;0.90;2201.60;;;;;;5051219;28;20395;-60
2023/02/05 01:05:56;;;;;;;11.57;6.30;;;0.80;2201.60;;;;;;5053177;28;20025;-60
2023/02/05 01:08:22;;;;;;;10.60;4.90;;;0.70;2201.60;;;;;;5053033;28;20048;-67
2023/02/05 01:10:49;;;;;;;12.23;4.78;;;0.90;2201.60;;;;;;5053004;28;20422;-60
2023/02/05 01:13:17;;;;;;;10.77;5.63;;;0.90;2201.60;;;;;;5053182;28;20444;-60
2023/02/05 01:15:43;;;;;;;7.05;3.55;;;0.90;2201.60;;;;;;5052897;28;20025;-61
2023/02/05 01:18:10;;;;;;;7.93;4.55;;;0.80;2201.60;;;;;;5052765;28;20025;-60
2023/02/05 01:20:40;;;;;;;41.00;19.88;;;25.60;2201.60;;;;;;5052304;28;20040;-59
2023/02/05 01:23:06;;;;;;;11.90;5.97;;;0.90;2201.60;;;;;;5052131;28;20140;-68
2023/02/05 01:25:32;;;;;;;10.85;6.40;;;0.90;2201.60;;;;;;5052062;28;20061;-68
2023/02/05 01:27:58;;;;;;;6.97;4.72;;;0.90;2201.60;;;;;;5052359;28;20443;-63
2023/02/05 01:30:23;;;;;;;9.93;4.45;;;0.80;2201.60;;;;;;5052517;28;20030;-67
2023/02/05 01:32:49;;;;;;;10.77;6.43;;;0.80;2201.60;;;;;;5052361;28;20025;-60
2023/02/05 01:35:15;;;;;;;11.45;5.95;;;0.90;2201.60;;;;;;5052749;28;20040;-68
2023/02/05 01:37:40;;;;;;;10.95;5.20;;;0.80;2201.60;;;;;;5052433;28;20056;-68
2023/02/05 01:40:07;;;;;;;10.90;6.03;;;0.70;2201.60;;;;;;5052492;28;20530;-68
2023/02/05 01:42:33;;;;;;;9.00;5.03;;;0.70;2201.60;;;;;;5051960;28;20132;-69
2023/02/05 01:45:20;;;;;;;12.82;6.47;;;0.70;2201.60;;;;;;5052297;28;20455;-67
2023/02/05 01:48:00;;;;;;;10.18;5.40;;;0.70;2201.60;;;;;;5052327;28;20040;-69
2023/02/05 01:50:43;;;;;;;12.60;5.70;;;0.80;2201.60;;;;;;5052177;28;20056;-61
2023/02/05 01:53:14;;;;;;;10.35;4.68;;;0.80;2201.60;;;;;;5051975;28;20066;-68
2023/02/05 01:55:53;;;;;;;8.68;6.13;;;0.70;2201.60;;;;;;5052179;28;20029;-69
2023/02/05 01:58:19;;;;;;;24.20;11.02;;;0.80;2201.60;;;;;;5052018;28;20021;-66
2023/02/05 02:00:46;;;;;;;16.58;8.20;;;0.80;2201.60;;;;;;5052094;28;20070;-69
2023/02/05 02:03:13;;;;;;;21.80;10.38;;;0.80;2201.60;;;;;;5051504;28;20398;-69
2023/02/05 02:05:39;;;;;;;13.75;8.57;;;0.80;2201.60;;;;;;5052036;28;20028;-67
2023/02/05 02:08:05;;;;;;;15.05;7.10;;;0.80;2201.60;;;;;;5052022;28;20021;-60
2023/02/05 02:10:32;;;;;;;10.95;7.22;;;0.90;2201.60;;;;;;5051771;28;20032;-69
2023/02/05 02:12:58;;;;;;;13.25;8.07;;;0.80;2201.60;;;;;;5051805;28;20025;-69
2023/02/05 02:15:26;;;;;;;19.83;9.65;;;0.80;2201.60;;;;;;5051823;28;20108;-60
2023/02/05 02:18:24;;;;;;;10.45;5.32;;;0.80;2201.60;;;;;;5051447;28;20029;-69
2023/02/05 02:20:52;;;;;;;12.55;6.22;;;0.90;2201.60;;;;;;5051825;28;20460;-69
2023/02/05 02:24:02;;;;;;;18.30;8.95;;;0.80;2201.60;;;;;;5051372;28;20140;-69
2023/02/05 02:26:42;;;;;;;87.53;44.15;;;0.90;2201.60;;;;;;5051693;28;20051;-59
2023/02/05 02:29:13;;;;;;;12.20;5.97;;;0.90;2201.60;;;;;;5051724;28;20390;-63
2023/02/05 02:31:46;;;;;;;59.60;34.08;;;0.90;2201.60;;;;;;5050596;28;20132;-66
2023/02/05 02:34:23;;;;;;;24.17;15.10;;;0.80;2201.60;;;;;;5051368;28;20057;-69
2023/02/05 02:37:07;;;;;;;45.38;23.30;;;0.80;2201.60;;;;;;5051393;28;20029;-67
2023/02/05 02:39:43;;;;;;;56.85;26.75;;;0.80;2201.60;;;;;;5051470;28;20025;-60
2023/02/05 02:42:22;;;;;;;18.15;10.65;;;0.80;2201.60;;;;;;5050952;28;20104;-60
2023/02/05 02:44:58;;;;;;;24.05;13.30;;;0.70;2201.60;;;;;;5051423;28;20036;-59
2023/02/05 02:47:33;;;;;;;52.85;28.45;;;0.70;2201.60;;;;;;5051246;28;20025;-61
2023/02/05 02:50:03;;;;;;;125.65;71.53;;;0.60;2201.60;;;;;;5051078;28;20053;-60
2023/02/05 02:52:34;;;;;;;21.45;11.63;;;0.70;2201.60;;;;;;5050750;28;20063;-61
2023/02/05 02:55:06;;;;;;;97.10;59.28;;;0.80;2201.60;;;;;;5051047;28;20066;-68
2023/02/05 02:57:35;;;;;;;43.75;21.30;;;0.80;2201.60;;;;;;5050850;28;20036;-61
2023/02/05 03:00:04;;;;;;;29.83;14.10;;;0.80;2201.60;;;;;;5050890;28;20025;-66
2023/02/05 03:02:34;;;;;;;39.50;24.75;;;0.80;2201.60;;;;;;5050731;28;20033;-62
2023/02/05 03:05:05;;;;;;;31.25;19.30;;;0.70;2201.60;;;;;;5050845;28;20547;-68
2023/02/05 03:07:37;;;;;;;45.70;24.65;;;0.70;2201.60;;;;;;5050776;28;20483;-69
2023/02/05 03:10:15;;;;;;;27.08;15.13;;;0.80;2201.60;;;;;;5050819;28;20367;-59
2023/02/05 03:12:41;;;;;;;45.65;25.35;;;0.70;2201.60;;;;;;5050443;28;20020;-60
2023/02/05 03:15:08;;;;;;;27.50;11.60;;;0.80;2201.60;;;;;;5050651;28;20160;-70
2023/02/05 03:17:35;;;;;;;14.75;8.82;;;0.70;2201.60;;;;;;5051257;28;20025;-70
2023/02/05 03:20:08;;;;;;;17.08;9.27;;;0.80;2201.60;;;;;;5050709;28;20025;-63
2023/02/05 03:22:34;;;;;;;10.95;5.40;;;0.70;2201.60;;;;;;5050586;28;20052;-69
2023/02/05 03:25:01;;;;;;;21.52;10.30;;;0.70;2201.60;;;;;;5050728;28;20029;-60
2023/02/05 03:27:27;;;;;;;20.63;11.70;;;0.60;2201.60;;;;;;5050943;28;20035;-69
2023/02/05 03:29:52;;;;;;;17.65;11.20;;;0.70;2201.60;;;;;;5050416;28;20029;-60
2023/02/05 03:32:43;;;;;;;42.05;24.35;;;0.70;2201.60;;;;;;5050680;28;20106;-61
2023/02/05 03:35:18;;;;;;;30.63;17.08;;;0.80;2201.60;;;;;;5050633;28;20028;-61
2023/02/05 03:38:08;;;;;;;28.25;14.00;;;0.80;2201.60;;;;;;5050509;28;20029;-69
2023/02/05 03:40:42;;;;;;;20.85;12.98;;;0.70;2201.60;;;;;;5050646;28;20044;-68
2023/02/05 03:43:29;;;;;;;18.17;11.52;;;0.70;2201.60;;;;;;5050108;28;20033;-70
2023/02/05 03:46:16;;;;;;;22.92;10.73;;;0.70;2201.60;;;;;;5050510;28;20057;-70
2023/02/05 03:49:06;;;;;;;15.20;9.55;;;0.70;2201.60;;;;;;5050279;28;20021;-61
2023/02/05 03:51:37;;;;;;;20.52;11.73;;;0.60;2201.60;;;;;;5050469;28;20440;-67
2023/02/05 03:54:30;;;;;;;18.55;11.13;;;0.50;2201.60;;;;;;5050227;28;20029;-60
2023/02/05 03:57:35;;;;;;;17.27;9.68;;;0.50;2201.60;;;;;;5050347;28;20021;-68
2023/02/05 04:00:02;;;;;;;12.05;8.30;;;0.30;2201.60;;;;;;5050258;28;20025;-67
2023/02/05 04:02:28;;;;;;;13.80;7.93;;;0.20;2201.60;;;;;;5050212;28;20049;-69
2023/02/05 04:04:54;;;;;;;12.65;8.30;;;0.10;2201.60;;;;;;5050116;28;20092;-59
2023/02/05 04:07:19;;;;;;;12.60;7.75;;;0.00;2201.60;;;;;;5050235;28;20107;-60
2023/02/05 04:09:45;;;;;;;13.68;9.20;;;0.00;2201.60;;;;;;5050151;28;20025;-60
2023/02/05 04:12:11;;;;;;;18.73;12.90;;;12.90;2201.60;;;;;;5050036;28;20025;-61
2023/02/05 04:14:36;;;;;;;8.82;6.32;;;12.90;2201.60;;;;;;5050394;28;20083;-60
2023/02/05 04:17:02;;;;;;;19.42;12.95;;;12.90;2201.60;;;;;;5050190;28;20025;-62
2023/02/05 04:19:28;;;;;;;47.30;30.05;;;13.00;2201.60;;;;;;5050289;28;20036;-60
2023/02/05 04:21:53;;;;;;;12.15;7.55;;;13.00;2201.60;;;;;;5049925;28;20390;-60
2023/02/05 04:24:19;;;;;;;10.35;6.47;;;13.00;2201.60;;;;;;5050129;28;20045;-69
2023/02/05 04:26:45;;;;;;;13.18;7.32;;;13.10;2201.60;;;;;;5050163;28;20421;-65
2023/02/05 04:29:11;;;;;;;8.23;4.43;;;13.10;2201.60;;;;;;5049965;28;20401;-60
2023/02/05 04:31:36;;;;;;;5.63;3.58;;;13.10;2201.60;;;;;;5050215;28;20017;-59
2023/02/05 04:34:02;;;;;;;8.35;4.40;;;13.00;2201.60;;;;;;5049692;28;20498;-60
2023/02/05 04:36:28;;;;;;;10.55;5.30;;;13.10;2201.60;;;;;;5049936;28;20459;-59
2023/02/05 04:38:53;;;;;;;16.92;10.50;;;13.10;2201.60;;;;;;5049989;28;20108;-60
2023/02/05 04:41:19;;;;;;;11.63;6.72;;;13.20;2201.60;;;;;;5049755;28;20021;-63
2023/02/05 04:43:45;;;;;;;21.08;13.23;;;13.20;2201.60;;;;;;5049787;28;20037;-60
2023/02/05 04:46:11;;;;;;;5.18;3.85;;;13.30;2201.60;;;;;;5049750;28;20048;-67
2023/02/05 04:48:37;;;;;;;9.93;5.65;;;13.20;2201.60;;;;;;5049654;28;20036;-59
2023/02/05 04:51:08;;;;;;;12.48;6.85;;;13.30;2201.60;;;;;;5049502;28;20049;-68
2023/02/05 04:53:33;;;;;;;8.98;6.10;;;13.20;2201.60;;;;;;5049430;28;20120;-61
2023/02/05 04:56:19;;;;;;;10.55;5.68;;;13.20;2201.60;;;;;;5051900;28;20064;-61
2023/02/05 04:58:45;;;;;;;11.02;6.75;;;13.20;2201.60;;;;;;5051864;28;20029;-60
2023/02/05 05:01:17;;;;;;;7.57;3.92;;;13.10;2201.60;;;;;;5053093;28;20376;-60
2023/02/05 05:03:43;;;;;;;8.90;3.47;;;13.00;2201.60;;;;;;5053015;28;20041;-60
2023/02/05 05:06:10;;;;;;;9.98;4.20;;;13.00;2201.60;;;;;;5053037;28;20268;-59
2023/02/05 05:08:36;;;;;;;6.80;3.55;;;12.90;2201.60;;;;;;5053421;28;20033;-60
2023/02/05 05:11:07;;;;;;;9.68;5.95;;;12.90;2201.60;;;;;;5052991;28;20021;-69
2023/02/05 05:13:34;;;;;;;10.25;6.50;;;0.00;2201.60;;;;;;5052853;28;20044;-69
2023/02/05 05:16:00;;;;;;;10.32;5.82;;;0.10;2201.60;;;;;;5052874;28;20078;-60
2023/02/05 05:18:25;;;;;;;14.75;7.38;;;0.00;2201.60;;;;;;5052868;28;20025;-60
2023/02/05 05:20:51;;;;;;;10.38;6.30;;;0.00;2201.60;;;;;;5052642;28;20379;-59
2023/02/05 05:23:17;;;;;;;9.02;5.40;;;12.90;2201.60;;;;;;5052684;28;20044;-69
2023/02/05 05:25:44;;;;;;;7.97;4.88;;;12.90;2201.60;;;;;;5052653;28;20033;-68
2023/02/05 05:28:11;;;;;;;9.68;5.82;;;13.00;2201.60;;;;;;5052414;28;20029;-59
2023/02/05 05:30:42;;;;;;;8.40;4.85;;;13.00;2201.60;;;;;;5052881;28;20387;-65
2023/02/05 05:33:07;;;;;;;6.22;3.53;;;13.10;2201.60;;;;;;5052670;28;20060;-59
2023/02/05 05:35:34;;;;;;;6.32;4.10;;;13.00;2201.60;;;;;;5052328;28;20045;-68
2023/02/05 05:38:00;;;;;;;9.52;5.20;;;13.10;2201.60;;;;;;5052407;28;20035;-60
2023/02/05 05:45:57;;;;;;;8.43;5.10;;;13.20;2201.60;;;;;;5052692;28;20098;-69
2023/02/05 05:48:24;;;;;;;7.60;3.75;;;13.40;2201.60;;;;;;5052661;28;20490;-61
2023/02/05 05:50:49;;;;;;;8.70;4.10;;;13.30;2201.60;;;;;;5052164;28;20056;-68
2023/02/05 05:53:15;;;;;;;19.52;9.48;;;13.50;2201.60;;;;;;5052507;28;20037;-59
2023/02/05 05:55:41;;;;;;;10.77;6.90;;;13.40;2201.60;;;;;;5052287;28;20067;-70
2023/02/05 05:58:08;;;;;;;6.57;3.83;;;13.50;2201.60;;;;;;5052232;28;20025;-66
2023/02/05 06:00:35;;;;;;;9.13;4.65;;;13.50;2201.60;;;;;;5052133;28;20459;-60
2023/02/05 06:03:01;;;;;;;7.97;4.97;;;13.50;2201.60;;;;;;5052266;28;20067;-70
2023/02/05 06:05:27;;;;;;;25.92;10.77;;;13.50;2201.60;;;;;;5052229;28;20021;-60
2023/02/05 06:07:52;;;;;;;11.70;5.78;;;13.50;2201.60;;;;;;5052115;28;20028;-68
2023/02/05 06:10:18;;;;;;;7.95;4.93;;;13.30;2201.60;;;;;;5051992;28;20025;-61
2023/02/05 06:12:44;;;;;;;11.35;5.72;;;13.50;2201.60;;;;;;5051818;28;20108;-70
2023/02/05 06:15:10;;;;;;;9.15;5.28;;;13.40;2201.60;;;;;;5051712;28;20076;-59
2023/02/05 06:17:36;;;;;;;11.68;6.47;;;13.40;2201.60;;;;;;5051885;28;20037;-60
2023/02/05 06:20:03;;;;;;;15.50;8.93;;;13.30;2201.60;;;;;;5051596;28;20132;-60
2023/02/05 06:22:28;;;;;;;13.43;6.47;;;13.20;2201.60;;;;;;5051453;28;20049;-60
2023/02/05 06:24:54;;;;;;;12.07;7.32;;;13.00;2201.60;;;;;;5051745;28;20025;-61
2023/02/05 06:27:20;;;;;;;9.82;5.15;;;12.90;2201.60;;;;;;5051582;28;20363;-61
2023/02/05 06:29:46;;;;;;;9.52;6.20;;;0.00;2201.60;;;;;;5051491;28;20056;-60
2023/02/05 06:32:11;;;;;;;8.95;5.05;;;0.00;2201.60;;;;;;5051426;28;20581;-59
2023/02/05 06:34:37;;;;;;;10.90;6.47;;;0.00;2201.60;;;;;;5051770;28;20028;-69
2023/02/05 06:37:03;;;;;;;12.55;7.03;;;12.90;2201.60;;;;;;5051485;28;20032;-59
2023/02/05 06:39:29;;;;;;;10.43;5.72;;;0.10;2201.60;;;;;;5051477;28;20451;-60
2023/02/05 06:41:54;;;;;;;11.90;6.80;;;0.00;2201.60;;;;;;5051502;28;20032;-60
2023/02/05 06:44:20;;;;;;;20.92;13.50;;;0.10;2201.60;;;;;;5050858;28;20040;-60
2023/02/05 06:46:46;;;;;;;23.02;12.35;;;0.30;2201.60;;;;;;5051343;28;20107;-60
2023/02/05 06:49:11;;;;;;;22.25;11.02;;;0.30;2201.60;;;;;;5051068;28;20471;-60
2023/02/05 06:51:37;;;;;;;25.50;12.43;;;0.50;2201.60;;;;;;5051060;28;20116;-67
2023/02/05 06:54:03;;;;;;;13.48;7.25;;;0.50;2201.60;;;;;;5051318;28;20090;-64
2023/02/05 06:56:28;;;;;;;14.95;9.55;;;0.40;2201.60;;;;;;5050936;28;20455;-61
2023/02/05 06:58:54;;;;;;;22.40;10.18;;;0.50;2201.60;;;;;;5050934;28;20056;-60
2023/02/05 07:01:20;;;;;;;14.10;8.43;;;0.60;2201.60;;;;;;5050847;28;20096;-66
2023/02/05 07:03:47;;;;;;;10.70;7.28;;;0.50;2201.60;;;;;;5050864;28;20482;-60
2023/02/05 07:06:13;;;;;;;17.73;10.23;;;0.60;2201.60;;;;;;5050860;28;20104;-66
2023/02/05 07:08:39;;;;;;;16.98;9.07;;;0.50;2201.60;;;;;;5050799;28;20550;-60
2023/02/05 07:11:04;;;;;;;21.95;11.30;;;0.70;2201.60;;;;;;5050988;28;20075;-60
2023/02/05 07:13:30;;;;;;;16.17;9.38;;;0.80;2201.60;;;;;;5050492;28;20025;-60
2023/02/05 07:15:56;;;;;;;23.27;11.60;;;0.80;2201.60;;;;;;5050922;28;20025;-66
2023/02/05 07:18:23;;;;;;;23.88;12.82;;;0.90;2201.60;;;;;;5050072;28;20025;-61
2023/02/05 07:20:48;;;;;;;25.35;13.65;;;0.90;2201.60;;;;;;5050647;28;20031;-62
2023/02/05 07:23:14;;;;;;;20.15;11.55;;;25.60;2201.60;;;;;;5050634;28;20045;-64
2023/02/05 07:25:40;;;;;;;19.63;11.48;;;25.60;2201.60;;;;;;5050557;28;20071;-61
2023/02/05 07:28:07;;;;;;;15.43;9.38;;;25.70;2201.60;;;;;;5050488;28;20036;-67
2023/02/05 07:30:36;;;;;;;20.45;12.27;;;0.90;2201.60;;;;;;5050441;28;20024;-60
2023/02/05 07:33:02;;;;;;;43.05;20.60;;;25.60;2201.60;;;;;;5050402;28;20097;-66
2023/02/05 07:35:29;;;;;;;46.58;24.58;;;25.70;2201.60;;;;;;5050464;28;20410;-67
2023/02/05 07:37:55;;;;;;;133.63;62.95;;;25.60;2201.60;;;;;;5050363;28;20483;-67
2023/02/05 07:40:21;;;;;;;115.95;58.45;;;25.80;2201.60;;;;;;5050212;28;20029;-66
2023/02/05 07:42:46;;;;;;;125.20;69.13;;;25.90;2201.60;;;;;;5050413;28;20041;-61
2023/02/05 07:45:12;;;;;;;162.43;88.85;;;25.80;2201.60;;;;;;5050245;28;20021;-60
2023/02/05 07:47:38;;;;;;;52.58;25.92;;;25.90;2201.60;;;;;;5050421;28;20032;-67
2023/02/05 07:50:05;;;;;;;72.68;41.58;;;26.00;2201.60;;;;;;5049881;28;20506;-63
2023/02/05 07:52:31;;;;;;;57.38;36.88;;;26.30;2201.60;;;;;;5050029;28;20418;-67
2023/02/05 07:54:57;;;;;;;71.28;47.03;;;26.50;2201.60;;;;;;5050517;28;20051;-66
2023/02/05 07:57:23;;;;;;;30.40;17.88;;;26.30;2201.60;;;;;;5050163;28;20029;-66
2023/02/05 07:59:48;;;;;;;36.95;24.02;;;26.30;2201.60;;;;;;5050265;28;20029;-60
2023/02/05 08:02:14;;;;;;;45.35;27.33;;;26.10;2201.60;;;;;;5050328;28;20053;-67
2023/02/05 08:04:40;;;;;;;37.15;25.42;;;26.20;2201.60;;;;;;5050266;28;20140;-61
2023/02/05 08:07:06;;;;;;;21.02;10.80;;;26.20;2201.60;;;;;;5050269;28;20033;-61
2023/02/05 08:09:33;;;;;;;28.08;17.52;;;26.30;2201.60;;;;;;5050113;28;20099;-61
2023/02/05 08:11:58;;;;;;;22.30;13.50;;;26.50;2201.60;;;;;;5050444;28;20037;-61
2023/02/05 08:14:24;;;;;;;27.30;14.20;;;26.50;2201.60;;;;;;5050240;28;20048;-62
2023/02/05 08:16:50;;;;;;;56.95;32.42;;;51.30;2227.20;;;;;;5049980;28;20033;-61
2023/02/05 08:19:16;;;;;;;71.70;37.03;;;51.50;2227.20;;;;;;5049924;28;20100;-61
2023/02/05 08:21:43;;;;;;;37.03;21.38;;;51.70;2227.20;;;;;;5049938;28;20037;-63
2023/02/05 08:24:09;;;;;;;136.95;80.90;;;51.90;2227.20;;;;;;5050169;28;20391;-61
2023/02/05 08:26:35;;;;;;;81.47;49.28;;;52.10;2227.20;;;;;;5050142;28;20021;-65
2023/02/05 08:29:01;;;;;;;490.58;319.17;;;77.20;2227.20;;;;;;5049140;28;20084;-64
2023/02/05 08:31:27;;;;;;;324.23;202.00;;;102.90;2124.80;;;;;;5053218;28;20048;-61
2023/02/05 08:33:55;;;;;;;171.05;112.47;;;128.70;2022.40;;;;;;5053622;28;20029;-63
2023/02/05 08:36:21;;;;;;;95.07;63.00;;;179.20;1868.80;;;;;;5053707;28;20104;-62
2023/02/05 08:38:46;;;;;;;122.32;88.85;;;204.90;1766.40;;;;;;5053691;28;20108;-61
2023/02/05 08:41:12;;;;;;;62.83;49.03;;;205.60;1689.60;;;;;;5053625;28;20120;-62
2023/02/05 08:43:43;;;;;;;100.65;81.72;;;205.00;1715.20;;;;;;5053567;28;20498;-62
2023/02/05 08:46:10;;;;;;;50.13;34.05;;;204.90;1715.20;;;;;;5053457;28;20032;-64
2023/02/05 08:48:36;;;;;;;39.15;21.83;;;205.50;1689.60;;;;;;5053505;28;20028;-61
2023/02/05 08:51:02;;;;;;;55.97;31.83;;;230.90;1612.80;;;;;;5053317;28;20041;-63
2023/02/05 08:53:29;;;;;;;40.80;25.35;;;231.30;1561.60;;;;;;5053404;28;20071;-67
2023/02/05 08:56:00;;;;;;;34.20;22.85;;;205.60;1638.40;;;;;;5053171;28;20467;-62
2023/02/05 08:58:27;;;;;;;17.92;13.63;;;230.80;1612.80;;;;;;5053232;28;20053;-62
2023/02/05 09:01:09;;;;;;;22.90;12.68;;;231.30;1536.00;;;;;;5053044;28;20391;-66
2023/02/05 09:03:35;;;;;;;16.23;13.15;;;205.40;1612.80;;;;;;5053416;28;20067;-61
2023/02/05 09:06:04;;;;;;;24.60;17.58;;;179.80;1715.20;;;;;;5053167;28;20021;-61
2023/02/05 09:08:30;;;;;;;29.25;20.00;;;154.00;1792.00;;;;;;5052917;28;20036;-65
2023/02/05 09:10:56;;;;;;;23.65;11.85;;;128.40;1868.80;;;;;;5053288;28;20021;-61
2023/02/05 09:13:21;;;;;;;15.93;9.85;;;128.00;1894.40;;;;;;5053082;28;20029;-61
2023/02/05 09:15:47;;;;;;;48.63;15.43;;;103.00;1894.40;;;;;;5052874;28;20029;-66
2023/02/05 09:18:13;;;;;;;21.23;13.32;;;102.80;1920.00;;;;;;5049840;28;20384;-60
2023/02/05 09:20:44;;;;;;;21.45;12.52;;;102.50;1945.60;;;;;;5050515;28;20032;-62
2023/02/05 09:23:11;;;;;;;18.75;10.75;;;102.60;1945.60;;;;;;5050500;28;20116;-62
2023/02/05 09:25:38;;;;;;;24.92;11.00;;;102.40;1945.60;;;;;;5050786;28;20075;-61
2023/02/05 09:28:08;;;;;;;17.42;10.55;;;77.70;1971.20;;;;;;5050621;28;20490;-61
2023/02/05 09:30:39;;;;;;;19.23;13.57;;;77.50;1971.20;;;;;;5050104;28;20029;-65
2023/02/05 09:33:05;;;;;;;28.63;16.30;;;77.70;1971.20;;;;;;5050359;28;20041;-63
2023/02/05 09:35:32;;;;;;;27.35;16.40;;;77.70;1996.80;;;;;;5050510;28;20444;-63
2023/02/05 09:37:59;;;;;;;26.02;16.08;;;77.40;1996.80;;;;;;5050396;28;20040;-62
2023/02/05 09:40:31;;;;;;;144.05;79.82;;;77.50;1996.80;;;;;;5049899;28;20021;-63
2023/02/05 09:43:17;;;;;;;579.92;346.95;;;77.20;1996.80;;;;;;5049864;28;20055;-61
2023/02/05 09:45:59;;;;;;;217.40;110.00;;;77.40;2022.40;;;;;;5050039;28;20068;-63
2023/02/05 09:48:48;;;;;;;439.40;228.02;;;77.30;2022.40;;;;;;5050166;28;20657;-63
2023/02/05 09:51:17;;;;;;;99.38;48.45;;;77.20;2022.40;;;;;;5049998;28;20057;-63
2023/02/05 09:53:49;;;;;;;144.50;71.28;;;76.80;2048.00;;;;;;5049959;28;20040;-63
2023/02/05 09:56:16;;;;;;;388.23;196.23;;;77.00;2048.00;;;;;;5044415;28;20470;-62
2023/02/05 09:58:46;;;;;;;102.50;54.00;;;77.10;2022.40;;;;;;5039045;28;20030;-62
2023/02/05 10:01:30;;;;;;;139.32;77.03;;;77.00;2022.40;;;;;;5040884;28;21035;-62
2023/02/05 10:03:59;;;;;;;86.28;45.60;;;52.00;2022.40;;;;;;5041425;28;20698;-63
2023/02/05 10:06:28;;;;;;;110.38;68.63;;;76.80;2022.40;;;;;;5046071;28;20539;-62
2023/02/05 10:09:19;;;;;;;91.30;56.00;;;77.00;2022.40;;;;;;5047071;28;20521;-63
2023/02/05 10:11:50;;;;;;;33.50;21.20;;;77.00;2022.40;;;;;;5045720;28;20013;-61
2023/02/05 10:14:43;;;;;;;59.55;39.13;;;76.80;2022.40;;;;;;5047240;28;20048;-63
2023/02/05 10:17:30;;;;;;;16.77;10.65;;;52.10;2048.00;;;;;;5046580;28;20025;-64
2023/02/05 10:20:02;;;;;;;23.85;13.10;;;51.50;2073.60;;;;;;5047538;28;20021;-62
2023/02/05 10:22:47;;;;;;;21.20;11.18;;;51.50;2099.20;;;;;;5045499;28;20495;-63
2023/02/05 10:25:15;;;;;;;23.45;13.15;;;51.90;2048.00;;;;;;5046755;28;20387;-63
2023/02/05 10:28:04;;;;;;;31.90;17.25;;;51.90;2048.00;;;;;;5046735;28;20025;-63
2023/02/05 10:31:00;;;;;;;27.13;17.02;;;51.60;2073.60;;;;;;5046328;28;20129;-63
2023/02/05 10:33:54;;;;;;;30.40;18.00;;;51.80;2099.20;;;;;;5025079;28;20084;-61
2023/02/05 10:36:25;;;;;;;44.38;23.77;;;52.00;2073.60;;;;;;5023340;28;20434;-63
2023/02/05 10:38:55;;;;;;;51.95;28.13;;;51.90;2073.60;;;;;;5025510;28;20191;-63
2023/02/05 10:41:27;;;;;;;30.65;17.65;;;51.90;2099.20;;;;;;5025439;28;20040;-62
2023/02/05 10:44:13;;;;;;;23.13;15.67;;;51.80;2099.20;;;;;;5024649;28;20500;-64
2023/02/05 10:46:42;;;;;;;30.38;20.95;;;51.60;2124.80;;;;;;5024299;28;20037;-62
2023/02/05 10:49:29;;;;;;;31.30;17.35;;;51.30;2124.80;;;;;;5024909;28;20172;-63
2023/02/05 10:51:55;;;;;;;12.93;8.38;;;51.20;2150.40;;;;;;5042661;28;20518;-61
2023/02/05 10:54:30;;;;;;;20.70;14.85;;;51.20;2150.40;;;;;;5042549;28;20029;-62
2023/02/05 10:56:57;;;;;;;23.67;15.00;;;51.80;2124.80;;;;;;5041719;28;20029;-63
2023/02/05 10:59:27;;;;;;;46.78;26.92;;;76.90;2073.60;;;;;;5042056;28;20123;-62
2023/02/05 11:01:54;;;;;;;25.00;15.48;;;77.40;2048.00;;;;;;5041455;28;20093;-63
2023/02/05 11:04:49;;;;;;;22.40;13.02;;;76.80;2022.40;;;;;;5024471;28;20483;-62
2023/02/05 11:07:38;;;;;;;23.52;15.90;;;52.00;2073.60;;;;;;5039753;28;20569;-64
2023/02/05 11:10:25;;;;;;;21.08;13.93;;;76.90;2048.00;;;;;;5048186;28;20062;-63
2023/02/05 11:13:03;;;;;;;23.45;13.00;;;77.30;1996.80;;;;;;5063710;28;20029;-63
2023/02/05 11:15:31;;;;;;;19.73;13.88;;;77.10;1971.20;;;;;;5062630;28;20028;-62
2023/02/05 11:17:59;;;;;;;14.23;8.77;;;77.10;1996.80;;;;;;5064901;28;20019;-63
2023/02/05 11:20:31;;;;;;;28.10;15.80;;;51.70;2022.40;;;;;;5064787;28;20012;-63
2023/02/05 11:23:18;;;;;;;11.77;6.97;;;51.50;2099.20;;;;;;5066167;28;20090;-64
2023/02/05 11:25:58;;;;;;;13.20;8.40;;;26.50;2073.60;;;;;;5064967;28;20032;-63
2023/02/05 11:28:35;;;;;;;12.38;7.32;;;51.30;2099.20;;;;;;5065648;28;20038;-63
2023/02/05 11:31:30;;;;;;;19.00;11.95;;;51.30;2124.80;;;;;;5067193;28;20036;-63
2023/02/05 11:34:16;;;;;;;22.60;11.80;;;26.50;2150.40;;;;;;5048168;28;20025;-65
2023/02/05 11:36:48;;;;;;;28.13;15.88;;;51.60;2099.20;;;;;;5048160;28;20033;-64
2023/02/05 11:39:41;;;;;;;25.90;14.80;;;51.60;2099.20;;;;;;5048425;28;20071;-64
2023/02/05 11:42:23;;;;;;;24.47;13.80;;;52.10;2073.60;;;;;;5063580;28;20165;-64
2023/02/05 11:44:56;;;;;;;52.33;25.88;;;76.90;2022.40;;;;;;5064327;28;20068;-63
2023/02/05 11:47:35;;;;;;;43.15;24.30;;;77.50;1996.80;;;;;;5067004;28;20055;-63
2023/02/05 11:50:04;;;;;;;24.75;15.35;;;77.50;1971.20;;;;;;5059021;28;20566;-63
2023/02/05 11:52:35;;;;;;;22.85;16.17;;;77.40;1971.20;;;;;;5047819;28;20076;-63
2023/02/05 11:55:08;;;;;;;25.33;12.38;;;77.30;1945.60;;;;;;5046961;28;20036;-63
2023/02/05 11:57:37;;;;;;;31.40;18.92;;;77.20;1971.20;;;;;;5046671;28;20108;-66
2023/02/05 12:00:11;;;;;;;81.38;40.75;;;76.80;1996.80;;;;;;5046933;28;20040;-63
2023/02/05 12:02:41;;;;;;;37.42;19.35;;;76.90;2022.40;;;;;;5047646;28;20033;-63
2023/02/05 12:05:25;;;;;;;241.75;126.18;;;52.10;2048.00;;;;;;5051304;28;20048;-63
2023/02/05 12:08:09;;;;;;;132.02;72.40;;;76.80;2048.00;;;;;;5048613;28;20021;-62
2023/02/05 12:10:56;;;;;;;104.50;55.95;;;52.10;2048.00;;;;;;5051013;28;20029;-62
2023/02/05 12:13:31;;;;;;;57.60;32.15;;;51.90;2099.20;;;;;;5049673;28;20257;-62
2023/02/05 12:16:21;;;;;;;34.13;19.52;;;51.50;2099.20;;;;;;5051234;28;20029;-62
2023/02/05 12:19:14;;;;;;;27.45;15.82;;;51.60;2099.20;;;;;;5050912;28;20044;-63
2023/02/05 12:21:50;;;;;;;28.52;18.30;;;51.50;2124.80;;;;;;5051471;28;20107;-64
2023/02/05 12:24:43;;;;;;;16.67;10.38;;;51.60;2124.80;;;;;;5051708;28;20387;-64
2023/02/05 12:27:12;;;;;;;;;;;51.40;2124.80;;;;;;5052171;28;20064;-64
2023/02/05 12:30:14;;;;;;;21.77;12.18;;;26.30;2124.80;;;;;;5051947;28;19904;-63
2023/02/05 12:33:04;;;;;;;12.43;6.32;;;51.30;2150.40;;;;;;5051103;28;20021;-63
2023/02/05 12:35:43;;;;;;;30.25;16.42;;;51.70;2073.60;;;;;;5033448;28;20033;-63
2023/02/05 12:38:32;;;;;;;25.58;16.98;;;51.80;2073.60;;;;;;5051688;28;20110;-63